Time;durP1;ratioP1;P1;durP2;ratioP2;P2;SDS_P1;SDS_P2;PMS_P1;PMS_P2;Temp;Humidity;BMP_temperature;BMP_pressure;BME280_temperature;BME280_humidity;BME280_pressure;Samples;Min_cycle;Max_cycle;Signal;HPM_P1;HPM_P2
2024/03/12 00:00:32;;;;;;;11.23;5.80;;;13.30;91.70;;;;;;5094346;28;20071;-77
2024/03/12 00:02:57;;;;;;;12.10;6.22;;;13.30;91.70;;;;;;5095068;28;20032;-81
2024/03/12 00:05:24;;;;;;;12.23;6.85;;;13.30;91.90;;;;;;5094332;28;20036;-77
2024/03/12 00:07:51;;;;;;;12.88;7.40;;;13.30;91.90;;;;;;5094800;28;20059;-79
2024/03/12 00:10:19;;;;;;;12.73;7.72;;;13.30;91.90;;;;;;5094400;28;20062;-79
2024/03/12 00:12:50;;;;;;;15.73;7.50;;;13.30;91.90;;;;;;5094304;28;20036;-79
2024/03/12 00:15:19;;;;;;;14.30;7.38;;;13.30;92.00;;;;;;5094228;28;20523;-80
2024/03/12 00:17:46;;;;;;;11.95;6.68;;;13.30;92.10;;;;;;5093951;28;20051;-80
2024/03/12 00:22:58;;;;;;;13.93;6.57;;;13.20;92.30;;;;;;5093661;28;20044;-78
2024/03/12 00:25:24;;;;;;;10.55;5.57;;;13.30;92.10;;;;;;5093910;28;20404;-80
2024/03/12 00:27:50;;;;;;;9.80;5.95;;;13.30;92.00;;;;;;5093696;28;20036;-78
2024/03/12 00:30:24;;;;;;;11.02;5.60;;;13.30;92.00;;;;;;5093493;28;20093;-80
2024/03/12 00:32:54;;;;;;;10.23;5.47;;;13.20;92.10;;;;;;5093255;28;20107;-78
2024/03/12 00:35:24;;;;;;;12.70;6.00;;;13.20;92.10;;;;;;5093005;28;20036;-79
2024/03/12 00:37:52;;;;;;;12.85;6.35;;;13.10;92.20;;;;;;5094270;28;20132;-79
2024/03/12 00:40:22;;;;;;;12.57;6.47;;;13.10;92.30;;;;;;5093913;28;20028;-78
2024/03/12 00:42:48;;;;;;;15.98;6.70;;;13.10;92.30;;;;;;5093388;28;20082;-78
2024/03/12 00:45:19;;;;;;;12.23;6.05;;;13.10;92.40;;;;;;5093041;28;20040;-79
2024/03/12 00:47:45;;;;;;;11.60;6.30;;;13.20;92.40;;;;;;5074553;28;20032;-77
2024/03/12 00:50:11;;;;;;;12.68;6.22;;;13.20;92.40;;;;;;5092883;28;20051;-78
2024/03/12 00:52:38;;;;;;;9.45;6.22;;;13.20;92.40;;;;;;5092934;28;20028;-76
2024/03/12 00:55:04;;;;;;;14.82;6.57;;;13.20;92.50;;;;;;5093020;28;20075;-78
2024/03/12 00:57:34;;;;;;;12.57;6.40;;;13.10;92.50;;;;;;5092663;28;20423;-77
2024/03/12 01:00:00;;;;;;;11.38;6.15;;;13.10;92.60;;;;;;5092820;28;20214;-78
2024/03/12 01:02:25;;;;;;;12.75;6.72;;;13.10;92.60;;;;;;5092820;28;20369;-79
2024/03/12 01:04:52;;;;;;;10.95;6.55;;;13.10;92.60;;;;;;5074348;28;20047;-78
2024/03/12 01:07:19;;;;;;;14.13;8.05;;;13.10;92.60;;;;;;5092690;28;20090;-80
2024/03/12 01:09:46;;;;;;;12.48;6.93;;;13.10;92.80;;;;;;5092345;28;20036;-78
2024/03/12 01:12:13;;;;;;;13.25;6.55;;;13.10;92.80;;;;;;5092613;28;20081;-79
2024/03/12 01:14:39;;;;;;;9.60;6.47;;;13.10;92.70;;;;;;5092472;28;20031;-78
2024/03/12 01:17:06;;;;;;;11.20;6.25;;;13.10;92.90;;;;;;5092267;28;20044;-78
2024/03/12 01:19:33;;;;;;;9.00;5.75;;;13.10;92.80;;;;;;5092325;28;20479;-77
2024/03/12 01:21:59;;;;;;;12.40;6.32;;;13.10;92.90;;;;;;5092484;28;20039;-78
2024/03/12 01:24:26;;;;;;;12.00;6.43;;;13.10;92.80;;;;;;5074227;28;20031;-79
2024/03/12 01:26:52;;;;;;;13.27;6.57;;;13.10;92.80;;;;;;5092334;28;20040;-78
2024/03/12 01:29:18;;;;;;;10.85;5.85;;;13.10;92.90;;;;;;5092230;28;20452;-76
2024/03/12 01:31:44;;;;;;;15.27;6.95;;;13.10;92.90;;;;;;5091535;28;20044;-77
2024/03/12 01:34:13;;;;;;;12.85;7.03;;;13.10;92.90;;;;;;5092187;28;20049;-77
2024/03/12 01:36:39;;;;;;;12.40;5.93;;;13.10;92.90;;;;;;5092006;28;20035;-78
2024/03/12 01:39:08;;;;;;;10.90;5.93;;;13.10;93.00;;;;;;5091943;28;20040;-77
2024/03/12 01:41:41;;;;;;;12.93;6.72;;;13.10;93.00;;;;;;5091877;28;20032;-78
2024/03/12 01:44:09;;;;;;;14.05;7.05;;;13.00;93.00;;;;;;5091780;28;20440;-78
2024/03/12 01:46:36;;;;;;;14.05;6.40;;;13.00;93.00;;;;;;5091834;28;20052;-77
2024/03/12 01:49:08;;;;;;;9.32;6.00;;;13.00;93.10;;;;;;5091994;28;20025;-78
2024/03/12 01:51:35;;;;;;;11.50;6.63;;;13.00;93.10;;;;;;5091978;28;20445;-76
2024/03/12 01:54:03;;;;;;;12.23;6.13;;;12.90;93.20;;;;;;5091854;28;20046;-78
2024/03/12 01:56:29;;;;;;;11.95;6.18;;;12.90;93.00;;;;;;5091673;28;20096;-78
2024/03/12 01:58:57;;;;;;;8.93;5.93;;;12.90;93.10;;;;;;5092045;28;20028;-78
2024/03/12 02:01:23;;;;;;;12.82;6.07;;;12.90;93.00;;;;;;5091875;28;20369;-78
2024/03/12 02:03:51;;;;;;;11.82;6.15;;;12.90;93.00;;;;;;5091995;28;20089;-79
2024/03/12 02:06:19;;;;;;;13.45;6.15;;;12.80;92.90;;;;;;5091811;28;20028;-79
2024/03/12 02:08:46;;;;;;;12.90;6.07;;;12.80;93.10;;;;;;5092196;28;20511;-79
2024/03/12 02:11:11;;;;;;;11.93;6.00;;;12.80;92.90;;;;;;5092061;28;20039;-78
2024/03/12 02:13:37;;;;;;;10.77;5.15;;;12.80;93.10;;;;;;5093968;28;20032;-79
2024/03/12 02:16:05;;;;;;;11.15;5.70;;;12.70;92.90;;;;;;5095038;28;20036;-78
2024/03/12 02:18:32;;;;;;;11.70;6.05;;;12.80;92.90;;;;;;5092034;28;20032;-77
2024/03/12 02:20:58;;;;;;;10.80;5.65;;;12.70;92.90;;;;;;5091864;28;20055;-77
2024/03/12 02:23:39;;;;;;;11.93;5.55;;;12.80;92.90;;;;;;5091712;28;20356;-79
2024/03/12 02:26:05;;;;;;;12.65;5.72;;;12.70;92.90;;;;;;5091742;28;20044;-77
2024/03/12 02:28:31;;;;;;;11.32;5.97;;;12.70;92.80;;;;;;5091353;28;20119;-77
2024/03/12 02:30:58;;;;;;;10.73;5.88;;;12.70;92.80;;;;;;5092151;28;20492;-78
2024/03/12 02:33:23;;;;;;;11.38;5.47;;;12.70;92.80;;;;;;5091514;28;20041;-78
2024/03/12 02:35:49;;;;;;;11.00;5.60;;;12.70;93.00;;;;;;5091600;28;20043;-79
2024/03/12 02:38:15;;;;;;;10.60;5.93;;;12.60;92.90;;;;;;5091217;28;20043;-78
2024/03/12 02:40:41;;;;;;;8.85;5.05;;;12.60;93.10;;;;;;5091190;28;20040;-77
2024/03/12 02:43:07;;;;;;;14.25;6.65;;;12.50;93.10;;;;;;5093062;28;20097;-77
2024/03/12 02:45:33;;;;;;;11.02;5.60;;;12.50;93.10;;;;;;5076665;28;20051;-76
2024/03/12 02:47:59;;;;;;;13.38;5.93;;;12.50;93.10;;;;;;5095002;28;20107;-76
2024/03/12 02:50:26;;;;;;;10.02;5.35;;;12.50;93.20;;;;;;5095097;28;20253;-79
2024/03/12 02:52:51;;;;;;;9.18;5.00;;;12.40;93.20;;;;;;5095064;28;20476;-79
2024/03/12 02:55:19;;;;;;;11.55;5.57;;;12.40;93.20;;;;;;5094852;28;20192;-77
2024/03/12 02:57:45;;;;;;;10.70;5.45;;;12.30;93.30;;;;;;5095123;28;20107;-78
2024/03/12 03:00:14;;;;;;;8.70;6.18;;;12.30;93.40;;;;;;5094846;28;20409;-78
2024/03/12 03:02:40;;;;;;;8.98;5.20;;;12.30;93.40;;;;;;5095698;28;20028;-77
2024/03/12 03:05:07;;;;;;;10.40;5.68;;;12.30;93.50;;;;;;5096050;28;20488;-76
2024/03/12 03:07:34;;;;;;;9.63;5.47;;;12.30;93.50;;;;;;5095115;28;20593;-79
2024/03/12 03:09:59;;;;;;;9.65;5.30;;;12.30;93.50;;;;;;5094959;28;20059;-78
2024/03/12 03:12:25;;;;;;;10.35;5.25;;;12.30;93.60;;;;;;5094762;28;20059;-78
2024/03/12 03:14:51;;;;;;;9.52;5.00;;;12.30;93.50;;;;;;5094827;28;20476;-78
2024/03/12 03:17:17;;;;;;;8.07;4.72;;;12.30;93.50;;;;;;5094583;28;20367;-78
2024/03/12 03:19:43;;;;;;;9.02;4.53;;;12.30;93.60;;;;;;5094657;28;20055;-77
2024/03/12 03:22:09;;;;;;;8.88;4.90;;;12.20;93.40;;;;;;5094504;28;20040;-78
2024/03/12 03:24:36;;;;;;;9.90;4.28;;;12.20;93.60;;;;;;5094250;28;20037;-78
2024/03/12 03:27:05;;;;;;;10.10;4.22;;;12.20;93.50;;;;;;5094667;28;20035;-78
2024/03/12 03:29:35;;;;;;;6.90;3.60;;;12.20;93.60;;;;;;5094347;28;20377;-78
2024/03/12 03:32:02;;;;;;;8.25;4.53;;;12.20;93.60;;;;;;5076287;28;20043;-78
2024/03/12 03:34:29;;;;;;;7.38;4.05;;;12.20;93.50;;;;;;5094140;28;20071;-78
2024/03/12 03:36:59;;;;;;;9.98;4.22;;;12.10;93.60;;;;;;5076001;28;20036;-77
2024/03/12 03:39:26;;;;;;;8.32;4.15;;;12.10;93.60;;;;;;5094232;28;20043;-76
2024/03/12 03:41:55;;;;;;;11.65;4.90;;;12.10;93.70;;;;;;5094240;28;20033;-78
2024/03/12 03:44:22;;;;;;;10.88;5.90;;;12.10;93.60;;;;;;5093869;28;20492;-78
2024/03/12 03:46:48;;;;;;;10.63;6.25;;;12.00;93.70;;;;;;5093927;28;20047;-77
2024/03/12 03:49:14;;;;;;;11.85;7.13;;;11.90;93.80;;;;;;5094149;28;20111;-78
2024/03/12 03:51:40;;;;;;;12.95;7.20;;;11.90;93.80;;;;;;5094149;28;20036;-77
2024/03/12 03:54:07;;;;;;;12.57;7.75;;;11.90;94.10;;;;;;5093691;28;20028;-77
2024/03/12 03:56:33;;;;;;;13.50;8.02;;;11.80;94.00;;;;;;5087196;28;20033;-78
2024/03/12 03:59:01;;;;;;;11.45;8.00;;;11.80;94.00;;;;;;5055736;28;20384;-78
2024/03/12 04:01:30;;;;;;;12.13;8.10;;;11.70;94.10;;;;;;5056279;28;20483;-78
2024/03/12 04:03:56;;;;;;;11.52;7.57;;;11.70;94.30;;;;;;5073346;28;20025;-79
2024/03/12 04:06:23;;;;;;;10.75;8.32;;;11.80;94.40;;;;;;5073854;28;20076;-77
2024/03/12 04:08:55;;;;;;;14.20;8.02;;;11.80;94.20;;;;;;5073725;28;20329;-78
2024/03/12 04:11:20;;;;;;;11.73;7.47;;;11.80;94.00;;;;;;5055635;28;20056;-79
2024/03/12 04:13:52;;;;;;;14.23;7.80;;;11.80;94.20;;;;;;5073483;28;20483;-77
2024/03/12 04:16:18;;;;;;;11.23;7.45;;;11.70;94.40;;;;;;5085738;22;20083;-78
2024/03/12 04:18:44;;;;;;;11.20;7.43;;;11.70;94.50;;;;;;5093342;28;20035;-77
2024/03/12 04:21:13;;;;;;;13.13;7.75;;;11.70;94.50;;;;;;5093543;28;20036;-78
2024/03/12 04:23:39;;;;;;;11.88;7.43;;;11.70;94.50;;;;;;5093329;28;20033;-78
2024/03/12 04:26:05;;;;;;;16.33;7.90;;;11.70;94.60;;;;;;5093492;28;20044;-77
2024/03/12 04:28:31;;;;;;;13.20;7.78;;;11.70;94.60;;;;;;5093671;28;20034;-78
2024/03/12 04:30:57;;;;;;;11.52;7.35;;;11.70;94.50;;;;;;5093493;28;20522;-78
2024/03/12 04:33:24;;;;;;;11.52;7.78;;;11.70;94.40;;;;;;5093454;28;20134;-77
2024/03/12 04:35:50;;;;;;;13.70;7.95;;;11.70;94.40;;;;;;5092483;28;20051;-78
2024/03/12 04:38:18;;;;;;;10.88;7.70;;;11.60;94.40;;;;;;5075139;28;20377;-78
2024/03/12 04:40:47;;;;;;;10.68;8.45;;;11.60;94.60;;;;;;5093752;28;20059;-78
2024/03/12 04:43:13;;;;;;;12.50;8.82;;;11.60;94.70;;;;;;5093431;28;20028;-78
2024/03/12 04:45:42;;;;;;;11.77;8.00;;;11.60;94.70;;;;;;5092980;28;20050;-78
2024/03/12 04:48:09;;;;;;;11.98;8.60;;;11.50;94.60;;;;;;5093043;28;20039;-79
2024/03/12 04:50:35;;;;;;;13.00;9.30;;;11.40;94.80;;;;;;5093259;28;20032;-78
2024/03/12 04:53:01;;;;;;;12.70;9.20;;;11.40;94.80;;;;;;5093075;28;20062;-77
2024/03/12 04:55:26;;;;;;;11.63;9.82;;;11.40;94.90;;;;;;5092877;28;20036;-80
2024/03/12 04:57:52;;;;;;;13.60;10.07;;;11.40;94.90;;;;;;5092782;28;20162;-78
2024/03/12 05:00:21;;;;;;;14.05;11.40;;;11.40;95.00;;;;;;5092750;28;20036;-77
2024/03/12 05:02:49;;;;;;;18.13;12.18;;;11.30;94.40;;;;;;5093117;28;20043;-78
2024/03/12 05:05:19;;;;;;;19.80;15.07;;;11.30;95.10;;;;;;5091968;28;20491;-78
2024/03/12 05:07:45;;;;;;;16.95;12.77;;;11.20;94.70;;;;;;5074396;28;20024;-77
2024/03/12 05:10:11;;;;;;;16.23;12.73;;;11.20;95.30;;;;;;5092776;28;20068;-77
2024/03/12 05:12:37;;;;;;;16.33;11.75;;;11.20;95.20;;;;;;5092674;28;20028;-76
2024/03/12 05:15:09;;;;;;;16.30;13.25;;;11.30;95.20;;;;;;5092720;28;20064;-77
2024/03/12 05:17:39;;;;;;;16.15;12.65;;;11.30;95.30;;;;;;5092506;28;20526;-77
2024/03/12 05:20:14;;;;;;;17.35;13.65;;;11.40;94.50;;;;;;5092359;28;20067;-78
2024/03/12 05:22:40;;;;;;;15.48;13.77;;;11.40;95.10;;;;;;5092796;28;20114;-78
2024/03/12 05:25:10;;;;;;;22.13;14.60;;;11.40;95.30;;;;;;5074179;28;20473;-77
2024/03/12 05:27:42;;;;;;;18.67;14.38;;;11.30;95.20;;;;;;5092776;28;20024;-77
2024/03/12 05:30:14;;;;;;;19.67;15.10;;;11.30;94.90;;;;;;5093481;28;20066;-77
2024/03/12 05:32:47;;;;;;;20.52;15.05;;;11.20;94.80;;;;;;5093227;28;20032;-77
2024/03/12 05:35:22;;;;;;;18.63;15.38;;;11.20;94.60;;;;;;5092538;28;20032;-79
2024/03/12 05:38:02;;;;;;;20.60;15.20;;;11.20;95.40;;;;;;5092282;28;20028;-78
2024/03/12 05:40:43;;;;;;;17.73;14.85;;;11.10;95.60;;;;;;5092192;28;20100;-78
2024/03/12 05:48:38;;;;;;;19.27;15.18;;;11.20;95.50;;;;;;5092685;28;20039;-78
2024/03/12 05:51:05;;;;;;;20.25;16.30;;;11.20;95.50;;;;;;5073956;28;20115;-77
2024/03/12 05:53:30;;;;;;;21.63;15.80;;;11.20;95.50;;;;;;5092112;28;20464;-78
2024/03/12 05:55:56;;;;;;;18.50;14.90;;;11.30;95.50;;;;;;5073691;28;20035;-78
2024/03/12 05:58:22;;;;;;;17.30;15.13;;;11.30;95.40;;;;;;5091864;28;20088;-76
2024/03/12 06:00:48;;;;;;;16.60;12.40;;;11.30;95.40;;;;;;5091991;28;20059;-77
2024/03/12 06:03:14;;;;;;;13.65;11.45;;;11.30;95.40;;;;;;5091939;28;20043;-78
2024/03/12 06:05:43;;;;;;;15.02;11.63;;;11.20;95.50;;;;;;5091914;28;20089;-78
2024/03/12 06:08:09;;;;;;;13.93;10.45;;;11.20;95.50;;;;;;5092028;28;20032;-77
2024/03/12 06:10:35;;;;;;;16.30;11.50;;;11.10;95.40;;;;;;5092375;28;20086;-79
2024/03/12 06:13:00;;;;;;;11.13;8.60;;;11.10;95.30;;;;;;5092487;28;20048;-79
2024/03/12 06:15:26;;;;;;;13.15;9.40;;;11.10;95.30;;;;;;5092439;28;20074;-78
2024/03/12 06:17:52;;;;;;;14.27;8.85;;;11.10;95.20;;;;;;5094880;28;20052;-77
2024/03/12 06:20:17;;;;;;;11.85;8.48;;;11.10;95.10;;;;;;5078270;28;20032;-79
2024/03/12 06:22:43;;;;;;;14.15;9.00;;;11.10;95.00;;;;;;5096834;28;20372;-80
2024/03/12 06:25:10;;;;;;;10.88;8.68;;;11.10;95.10;;;;;;5096796;28;20058;-78
2024/03/12 06:27:39;;;;;;;12.32;8.45;;;11.10;95.10;;;;;;5096524;28;20082;-79
2024/03/12 06:30:05;;;;;;;13.10;8.05;;;11.20;94.00;;;;;;5096379;28;20041;-77
2024/03/12 06:32:32;;;;;;;11.77;8.88;;;11.60;94.70;;;;;;5096904;28;20111;-81
2024/03/12 06:34:58;;;;;;;11.13;8.15;;;12.30;94.50;;;;;;5078250;28;20036;-78
2024/03/12 06:37:27;;;;;;;9.95;7.38;;;12.80;93.20;;;;;;5095999;28;20093;-78
2024/03/12 06:39:57;;;;;;;11.77;9.60;;;12.70;93.00;;;;;;5095976;28;20031;-79
2024/03/12 06:42:29;;;;;;;10.95;8.60;;;12.60;92.70;;;;;;5095785;28;20028;-77
2024/03/12 06:44:54;;;;;;;11.43;7.88;;;12.70;93.00;;;;;;5096329;28;20044;-78
2024/03/12 06:47:21;;;;;;;12.63;8.45;;;13.20;93.00;;;;;;5095767;28;20034;-79
2024/03/12 06:49:47;;;;;;;22.58;17.52;;;14.40;91.80;;;;;;5095415;28;20042;-77
2024/03/12 06:52:15;;;;;;;12.32;8.23;;;15.50;90.00;;;;;;5095692;28;20024;-77
2024/03/12 06:54:41;;;;;;;10.00;7.70;;;16.60;87.50;;;;;;5070320;28;20093;-79
2024/03/12 06:57:07;;;;;;;21.65;17.35;;;17.50;84.20;;;;;;5095207;28;20057;-71
2024/03/12 06:59:33;;;;;;;11.35;7.68;;;18.50;81.80;;;;;;5095350;28;20028;-69
2024/03/12 07:02:00;;;;;;;8.63;5.88;;;19.50;78.70;;;;;;5095304;28;20177;-71
2024/03/12 07:04:34;;;;;;;10.52;8.27;;;20.40;76.10;;;;;;5095352;28;20028;-73
2024/03/12 07:07:03;;;;;;;7.28;5.22;;;21.10;73.60;;;;;;5093575;28;20041;-72
2024/03/12 07:09:31;;;;;;;8.05;4.82;;;21.20;71.30;;;;;;5084293;28;20031;-73
2024/03/12 07:12:00;;;;;;;11.25;7.32;;;19.40;72.70;;;;;;5074903;28;20039;-73
2024/03/12 07:14:32;;;;;;;7.43;5.07;;;18.00;76.30;;;;;;5074930;28;20035;-72
2024/03/12 07:16:57;;;;;;;10.75;5.45;;;16.80;78.60;;;;;;5074661;28;20064;-72
2024/03/12 07:19:23;;;;;;;8.05;5.63;;;15.70;80.50;;;;;;5074682;28;20098;-72
2024/03/12 07:21:49;;;;;;;8.60;5.57;;;15.00;82.50;;;;;;5074398;28;20029;-71
2024/03/12 07:24:15;;;;;;;6.82;5.35;;;14.60;84.30;;;;;;5074432;28;20052;-72
2024/03/12 07:26:45;;;;;;;8.45;5.53;;;14.30;85.40;;;;;;5085291;28;20028;-71
2024/03/12 07:29:11;;;;;;;7.85;5.90;;;14.10;86.10;;;;;;5090264;28;20078;-72
2024/03/12 07:31:37;;;;;;;6.80;5.32;;;14.10;86.60;;;;;;5083155;28;20033;-71
2024/03/12 07:34:05;;;;;;;8.82;5.85;;;14.10;86.50;;;;;;5074077;28;20032;-71
2024/03/12 07:36:33;;;;;;;10.40;6.20;;;14.10;86.80;;;;;;5074372;28;20051;-71
2024/03/12 07:38:59;;;;;;;7.95;6.00;;;14.20;86.80;;;;;;5094161;28;20107;-72
2024/03/12 07:41:26;;;;;;;12.13;6.45;;;14.30;86.40;;;;;;5094474;28;20118;-69
2024/03/12 07:43:52;;;;;;;12.93;5.82;;;14.40;86.10;;;;;;5087937;28;20116;-70
2024/03/12 07:46:18;;;;;;;9.18;4.88;;;14.60;86.00;;;;;;5084054;28;20048;-69
2024/03/12 07:48:49;;;;;;;6.95;4.82;;;14.60;84.90;;;;;;5094075;28;20086;-69
2024/03/12 07:51:14;;;;;;;8.73;4.78;;;14.70;84.90;;;;;;5093895;28;20098;-70
2024/03/12 07:53:40;;;;;;;8.15;4.18;;;14.60;84.60;;;;;;5087649;28;20044;-70
2024/03/12 07:56:06;;;;;;;6.38;3.63;;;14.60;84.50;;;;;;5086563;28;20025;-71
2024/03/12 07:58:33;;;;;;;6.40;3.45;;;14.50;84.60;;;;;;5093330;28;20157;-70
2024/03/12 08:00:59;;;;;;;6.50;3.45;;;14.40;84.50;;;;;;5093452;28;20039;-70
2024/03/12 08:03:24;;;;;;;6.05;3.10;;;14.20;84.70;;;;;;5083053;28;20036;-70
2024/03/12 08:05:50;;;;;;;6.53;3.08;;;14.10;85.10;;;;;;5085783;28;20432;-69
2024/03/12 08:08:16;;;;;;;5.68;3.33;;;14.10;85.40;;;;;;5085150;28;20024;-71
2024/03/12 08:10:42;;;;;;;5.38;3.30;;;14.10;85.70;;;;;;5084663;28;20127;-71
2024/03/12 08:13:08;;;;;;;7.38;3.25;;;14.10;85.50;;;;;;5082834;28;20025;-69
2024/03/12 08:15:34;;;;;;;6.85;3.33;;;14.10;85.50;;;;;;5086387;28;20039;-70
2024/03/12 08:18:01;;;;;;;5.05;3.22;;;14.10;85.40;;;;;;5093419;28;20040;-72
2024/03/12 08:20:27;;;;;;;7.00;3.53;;;14.10;85.60;;;;;;5093876;28;20035;-70
2024/03/12 08:22:52;;;;;;;7.82;3.30;;;14.10;85.80;;;;;;5091762;28;20032;-73
2024/03/12 08:25:18;;;;;;;7.60;3.88;;;14.10;85.70;;;;;;5083791;28;20399;-71
2024/03/12 08:27:44;;;;;;;7.03;3.38;;;14.10;85.90;;;;;;5087521;28;20097;-72
2024/03/12 08:30:11;;;;;;;8.07;3.50;;;14.00;85.90;;;;;;5077063;28;20041;-71
2024/03/12 08:32:38;;;;;;;7.05;3.17;;;14.00;85.80;;;;;;5071959;28;20035;-73
2024/03/12 08:35:05;;;;;;;6.57;2.70;;;14.00;85.90;;;;;;5073844;28;20045;-70
2024/03/12 08:37:31;;;;;;;10.60;3.30;;;14.00;85.40;;;;;;5073657;28;20033;-71
2024/03/12 08:39:57;;;;;;;8.00;3.13;;;14.00;85.60;;;;;;5073706;28;20039;-71
2024/03/12 08:42:23;;;;;;;5.57;3.33;;;14.10;85.40;;;;;;5073963;28;20029;-70
2024/03/12 08:44:48;;;;;;;6.38;3.53;;;14.10;85.40;;;;;;5073216;28;20047;-71
2024/03/12 08:47:14;;;;;;;8.10;3.38;;;14.20;85.20;;;;;;5072726;28;20028;-71
2024/03/12 08:49:41;;;;;;;7.78;3.47;;;14.30;85.20;;;;;;5072744;28;20043;-71
2024/03/12 08:52:07;;;;;;;7.60;3.20;;;14.30;85.00;;;;;;5072986;28;20157;-70
2024/03/12 08:54:33;;;;;;;9.43;3.50;;;14.40;84.80;;;;;;5072863;28;20126;-72
2024/03/12 08:57:01;;;;;;;12.50;3.35;;;14.50;84.50;;;;;;5072610;28;20024;-70
2024/03/12 08:59:27;;;;;;;8.02;3.03;;;14.80;84.50;;;;;;5076245;28;20116;-72
2024/03/12 09:01:57;;;;;;;3.30;1.80;;;14.90;83.60;;;;;;5092285;28;20500;-70
2024/03/12 09:04:23;;;;;;;2.80;1.67;;;14.90;82.20;;;;;;5092979;28;20036;-71
2024/03/12 09:06:49;;;;;;;6.40;2.17;;;14.80;81.50;;;;;;5092868;28;20032;-70
2024/03/12 09:09:16;;;;;;;4.93;2.40;;;14.70;81.50;;;;;;5092734;28;20039;-71
2024/03/12 09:11:42;;;;;;;5.28;1.90;;;14.70;81.70;;;;;;5092546;28;20107;-70
2024/03/12 09:14:08;;;;;;;5.13;1.77;;;14.60;81.30;;;;;;5092506;28;20377;-70
2024/03/12 09:16:34;;;;;;;4.63;2.22;;;14.50;81.20;;;;;;5092238;28;20178;-71
2024/03/12 09:19:00;;;;;;;4.35;1.73;;;14.50;81.10;;;;;;5092416;28;20036;-70
2024/03/12 09:21:27;;;;;;;7.13;2.33;;;14.50;81.10;;;;;;5091976;28;20061;-70
2024/03/12 09:23:53;;;;;;;5.05;2.20;;;14.60;80.90;;;;;;5073920;28;20025;-71
2024/03/12 09:26:19;;;;;;;5.72;2.20;;;14.80;81.00;;;;;;5092177;28;20084;-71
2024/03/12 09:28:46;;;;;;;6.63;2.00;;;15.10;80.60;;;;;;5092135;28;20079;-71
2024/03/12 09:31:13;;;;;;;4.13;2.03;;;15.30;80.10;;;;;;5092395;28;20031;-70
2024/03/12 09:33:39;;;;;;;4.35;2.38;;;15.40;79.90;;;;;;5092162;28;20031;-70
2024/03/12 09:36:05;;;;;;;5.38;1.90;;;15.50;79.70;;;;;;5070905;28;20036;-71
2024/03/12 09:38:30;;;;;;;3.30;1.75;;;15.30;79.30;;;;;;5080729;28;20056;-69
2024/03/12 09:41:00;;;;;;;6.18;1.90;;;15.10;79.40;;;;;;5071024;28;20036;-70
2024/03/12 09:43:32;;;;;;;3.42;1.40;;;14.90;79.20;;;;;;5072185;28;20082;-69
2024/03/12 09:46:01;;;;;;;6.43;1.83;;;14.80;79.10;;;;;;5071946;28;20044;-71
2024/03/12 09:48:26;;;;;;;5.38;1.88;;;14.80;79.00;;;;;;5071949;28;20044;-71
2024/03/12 09:50:52;;;;;;;4.03;1.63;;;14.80;79.10;;;;;;5071982;28;20470;-68
2024/03/12 09:53:20;;;;;;;4.22;1.70;;;14.90;79.10;;;;;;5057102;28;20119;-72
2024/03/12 09:55:47;;;;;;;2.70;1.52;;;15.10;79.00;;;;;;5090910;28;20044;-69
2024/03/12 09:58:13;;;;;;;3.90;1.70;;;15.30;78.90;;;;;;5090161;28;20051;-69
2024/03/12 10:00:38;;;;;;;5.43;1.73;;;15.40;78.10;;;;;;5090549;28;20550;-70
2024/03/12 10:03:05;;;;;;;4.30;1.52;;;15.50;77.80;;;;;;5091983;28;20032;-70
2024/03/12 10:05:33;;;;;;;3.78;1.45;;;15.50;77.70;;;;;;5092255;28;20442;-69
2024/03/12 10:08:08;;;;;;;3.10;1.25;;;15.40;77.60;;;;;;5092200;28;20093;-70
2024/03/12 10:10:38;;;;;;;2.85;1.50;;;15.40;77.80;;;;;;5092212;28;20059;-70
2024/03/12 10:13:17;;;;;;;4.80;1.77;;;15.30;77.70;;;;;;5073743;28;20088;-70
2024/03/12 10:16:01;;;;;;;4.47;1.98;;;15.30;78.30;;;;;;5092224;28;20047;-71
2024/03/12 10:18:29;;;;;;;5.63;1.98;;;15.30;78.80;;;;;;5092003;28;20040;-70
2024/03/12 10:20:57;;;;;;;4.55;1.60;;;15.40;78.30;;;;;;5091982;28;20399;-69
2024/03/12 10:23:25;;;;;;;2.10;1.20;;;15.40;77.80;;;;;;5091988;28;20032;-70
2024/03/12 10:25:52;;;;;;;5.60;1.42;;;15.50;77.50;;;;;;5091971;28;20044;-69
2024/03/12 10:28:24;;;;;;;2.13;1.20;;;15.50;77.40;;;;;;5091026;28;20016;-71
2024/03/12 10:30:51;;;;;;;3.72;1.33;;;15.50;76.60;;;;;;5091810;28;20036;-71
2024/03/12 10:33:18;;;;;;;5.78;1.80;;;15.40;76.90;;;;;;5091930;28;20459;-70
2024/03/12 10:35:45;;;;;;;3.50;1.30;;;15.60;77.20;;;;;;5091806;28;20036;-68
2024/03/12 10:38:25;;;;;;;3.65;1.42;;;15.70;77.00;;;;;;5072995;28;20036;-70
2024/03/12 10:40:52;;;;;;;5.20;1.90;;;15.70;76.60;;;;;;5091929;28;20048;-69
2024/03/12 10:43:20;;;;;;;3.38;1.60;;;15.80;76.90;;;;;;5073696;28;20043;-69
2024/03/12 10:45:49;;;;;;;3.28;1.60;;;15.90;76.70;;;;;;5073580;28;20097;-68
2024/03/12 10:48:15;;;;;;;7.60;1.67;;;15.90;76.30;;;;;;5092173;28;20475;-69
2024/03/12 10:50:42;;;;;;;10.00;1.90;;;15.90;76.10;;;;;;5091952;28;20039;-69
2024/03/12 10:53:11;;;;;;;2.17;1.50;;;16.10;76.40;;;;;;5082399;28;20044;-70
2024/03/12 10:55:38;;;;;;;4.22;1.75;;;16.10;75.80;;;;;;5087584;28;20039;-70
2024/03/12 10:58:06;;;;;;;4.95;1.80;;;16.00;75.70;;;;;;5091911;28;20033;-69
2024/03/12 11:00:33;;;;;;;7.47;1.48;;;16.00;75.90;;;;;;5091679;28;20556;-69
2024/03/12 11:02:59;;;;;;;2.63;1.30;;;16.00;75.90;;;;;;5091513;28;20337;-70
2024/03/12 11:05:29;;;;;;;2.83;1.48;;;16.10;75.70;;;;;;5094621;28;20051;-70
2024/03/12 11:07:57;;;;;;;3.53;1.30;;;16.20;75.50;;;;;;5095312;28;20029;-70
2024/03/12 11:10:28;;;;;;;5.90;1.63;;;16.20;75.00;;;;;;5095226;28;20043;-70
2024/03/12 11:12:55;;;;;;;2.70;1.50;;;16.30;74.90;;;;;;5077300;28;20082;-70
2024/03/12 11:15:23;;;;;;;2.65;1.50;;;16.40;74.90;;;;;;5095323;28;20074;-72
2024/03/12 11:17:50;;;;;;;5.03;1.88;;;16.50;74.60;;;;;;5095140;28;20058;-71
2024/03/12 11:20:22;;;;;;;4.63;1.77;;;16.70;74.70;;;;;;5095172;28;20039;-70
2024/03/12 11:22:54;;;;;;;8.50;1.53;;;16.80;74.20;;;;;;5095011;28;20391;-70
2024/03/12 11:25:38;;;;;;;3.75;1.40;;;16.90;73.90;;;;;;5094509;28;20305;-70
2024/03/12 11:28:26;;;;;;;4.47;1.50;;;16.90;73.20;;;;;;5095045;28;20059;-71
2024/03/12 11:30:55;;;;;;;3.05;1.58;;;16.90;73.00;;;;;;5094842;28;20468;-68
2024/03/12 11:33:39;;;;;;;3.72;1.17;;;16.90;72.60;;;;;;5090399;28;20075;-71
2024/03/12 11:36:32;;;;;;;2.30;1.08;;;16.80;72.10;;;;;;5074957;28;20040;-70
2024/03/12 11:39:29;;;;;;;5.55;1.35;;;16.80;71.80;;;;;;5082907;28;20043;-72
2024/03/12 11:42:00;;;;;;;6.90;1.10;;;16.80;72.00;;;;;;5094820;28;20060;-72
2024/03/12 11:44:44;;;;;;;7.55;1.33;;;16.80;71.60;;;;;;5094549;28;20495;-72
2024/03/12 11:47:36;;;;;;;5.47;1.30;;;16.90;72.50;;;;;;5094982;28;20036;-72
2024/03/12 11:50:07;;;;;;;5.15;1.48;;;17.00;71.40;;;;;;5094925;28;20089;-70
2024/03/12 11:52:34;;;;;;;7.28;1.60;;;17.10;71.10;;;;;;5094628;28;20034;-70
2024/03/12 11:55:03;;;;;;;4.63;1.50;;;17.10;70.80;;;;;;5094703;28;20059;-69
2024/03/12 11:57:33;;;;;;;4.10;1.27;;;17.10;70.70;;;;;;5094640;28;20032;-69
2024/03/12 11:59:59;;;;;;;2.22;1.05;;;17.10;70.40;;;;;;5094356;28;20531;-70
2024/03/12 12:02:26;;;;;;;3.63;1.25;;;17.10;70.60;;;;;;5076259;28;20036;-71
2024/03/12 12:04:56;;;;;;;5.43;1.40;;;17.20;70.00;;;;;;5094432;28;20438;-69
2024/03/12 12:07:25;;;;;;;4.07;1.52;;;17.40;70.10;;;;;;5093853;28;20028;-70
2024/03/12 12:09:52;;;;;;;4.97;1.70;;;17.50;69.30;;;;;;5094123;28;20092;-70
2024/03/12 12:12:18;;;;;;;3.45;1.33;;;17.60;69.40;;;;;;5094147;28;20036;-70
2024/03/12 12:14:47;;;;;;;6.93;1.25;;;17.70;68.40;;;;;;5093575;28;20117;-69
2024/03/12 12:17:23;;;;;;;3.88;1.20;;;17.70;68.00;;;;;;5094154;28;20052;-70
2024/03/12 12:20:13;;;;;;;7.32;1.30;;;17.70;67.80;;;;;;5094185;28;20388;-70
2024/03/12 12:22:42;;;;;;;2.85;1.17;;;17.70;67.30;;;;;;5094446;28;20036;-70
2024/03/12 12:25:11;;;;;;;5.07;1.13;;;17.70;67.50;;;;;;5093711;28;20048;-70
2024/03/12 12:27:38;;;;;;;3.25;1.27;;;17.80;66.70;;;;;;5093783;28;20495;-70
2024/03/12 12:30:07;;;;;;;2.13;0.90;;;18.00;66.70;;;;;;5087070;28;20039;-71
2024/03/12 12:32:37;;;;;;;2.90;1.25;;;18.00;65.80;;;;;;5089087;28;20468;-72
2024/03/12 12:35:10;;;;;;;5.00;1.00;;;18.20;65.40;;;;;;5091003;28;20111;-71
2024/03/12 12:37:37;;;;;;;3.43;1.10;;;18.40;65.30;;;;;;5084484;28;20066;-71
2024/03/12 12:40:07;;;;;;;3.63;1.20;;;18.60;64.40;;;;;;5093211;28;20091;-71
2024/03/12 12:42:34;;;;;;;2.60;0.90;;;18.70;64.00;;;;;;5093544;28;20089;-70
2024/03/12 12:45:05;;;;;;;3.70;1.17;;;18.80;63.60;;;;;;5093241;28;20055;-72
2024/03/12 12:47:31;;;;;;;3.53;1.00;;;18.80;62.80;;;;;;5093289;28;20067;-72
2024/03/12 12:49:59;;;;;;;4.72;1.70;;;18.80;62.60;;;;;;5091013;28;20101;-70
2024/03/12 12:52:26;;;;;;;17.60;1.63;;;18.70;62.80;;;;;;5087756;28;20032;-72